LYBE/BEG METAR and TAF weather

Enter ICAO airport designator
Station Type Date Time Source
LYBE METAR 2019/11/22 01:00 UTC NOAA

LYBE 220100Z 12015KT CAVOK 10/06 Q1016 NOSIG


Station Type Date Time Source
LYBE Decoded METAR 2019/11/22 01:00 UTC NOAA

Beograd / Surcin, Serbia and Montenegro (LYBE) 44-49N 020-17E 99M
Nov 21, 2019 - 08:00 PM EST / 2019.11.22 0100 UTC
Wind: from the ESE (120 degrees) at 17 MPH (15 KT):0
Visibility: greater than 7 mile(s):0
Temperature: 50 F (10 C)
Dew Point: 42 F (6 C)
Relative Humidity: 76%
Pressure (altimeter): 30.00 in. Hg (1016 hPa)
ob: LYBE 220100Z 12015KT CAVOK 10/06 Q1016 NOSIG
cycle: 1

Station Type Date Time Source
LYBE TAF 2019/11/21 18:26 UTC NOAA

TAF LYBE 211700Z 2118/2218 11014KT CAVOK TX14/2212Z TN09/2206Z
TEMPO 2123/2218 11018G28KT

Example: see airport list